Back to Top

Language: 

My Weather Underground Personal Weather Station Historical Data with Graphs...

Delerius Weather Station Historical Data
Daily Summary for September 1, 2017 Units:  Metric    English   Both
« Previous Day
Next Day »
Daily Weekly Monthly Yearly Custom
  High: Low: Average:
Temperature: 20.4 °C 6.4 °C 13.6 °C
Dew Point: 13.4 °C 5.7 °C 9.8 °C
Humidity: 97 % 50 % 80 %
Wind Speed: 16.1 km/h 0 km/h 3.9 km/h
Wind Gust: 33.8 km/h - -
Wind:- - WNW
Pressure: 1023.6 hPa 1019.9 hPa -
Precipitation: 1.02 mm    
Historical Graphs
 
 
Tabular Data for September 1, 2017
Time Temperature Dew Point Pressure Wind Wind Speed Wind Gust Humidity Rainfall Rate (Hourly) solar Conditions
00:02 9.1 °C 7.7 °C 1019.9 hPa Calm     91 % 0 mm 0 W/m2
00:07 9 °C 7.6 °C 1019.9 hPa Calm     91 % 0 mm 0 W/m2
00:12 8.9 °C 7.5 °C 1019.9 hPa Calm     91 % 0 mm 0 W/m2
00:17 8.8 °C 7.4 °C 1019.9 hPa Calm     91 % 0 mm 0 W/m2
00:22 8.7 °C 7.3 °C 1019.9 hPa Calm     91 % 0 mm 0 W/m2
00:27 8.7 °C 7.5 °C 1019.9 hPa Calm     92 % 0 mm 0 W/m2
00:32 8.6 °C 7.4 °C 1019.9 hPa Calm     92 % 0 mm 0 W/m2
00:37 8.6 °C 7.4 °C 1019.9 hPa Calm     92 % 0 mm 0 W/m2
00:42 8.6 °C 7.4 °C 1019.9 hPa Calm     92 % 0 mm 0 W/m2
00:47 8.5 °C 7.3 °C 1019.9 hPa Calm     92 % 0 mm 0 W/m2
00:52 8.6 °C 7.6 °C 1019.9 hPa Calm     93 % 0 mm 0 W/m2
00:57 8.6 °C 7.6 °C 1019.9 hPa Calm     93 % 0 mm 0 W/m2
01:02 8.6 °C 7.6 °C 1019.9 hPa Calm     93 % 0 mm 0 W/m2
01:07 8.6 °C 7.6 °C 1019.9 hPa Calm     93 % 0 mm 0 W/m2
01:12 8.5 °C 7.4 °C 1019.9 hPa Calm   1.6 km/h 93 % 0 mm 0 W/m2
01:17 8.4 °C 7.3 °C 1019.9 hPa Calm   1.6 km/h 93 % 0 mm 0 W/m2
01:22 8.3 °C 7.1 °C 1019.9 hPa Calm   1.6 km/h 92 % 0 mm 0 W/m2
01:27 8.2 °C 7 °C 1019.9 hPa Calm     92 % 0 mm 0 W/m2
01:32 8.1 °C 6.9 °C 1019.9 hPa Calm     92 % 0 mm 0 W/m2
01:37 8.1 °C 7.1 °C 1019.9 hPa Calm     93 % 0 mm 0 W/m2
01:42 8 °C 6.9 °C 1019.9 hPa Calm     93 % 0 mm 0 W/m2
01:47 8 °C 6.9 °C 1019.9 hPa North 1.6 km/h 6.4 km/h 93 % 0 mm 0 W/m2
01:52 8 °C 6.9 °C 1019.9 hPa North 3.2 km/h 8 km/h 93 % 0 mm 0 W/m2
01:57 8.1 °C 7.2 °C 1019.9 hPa North 1.6 km/h 8 km/h 94 % 0 mm 0 W/m2
02:02 8.2 °C 7.3 °C 1019.9 hPa Calm   4.8 km/h 94 % 0 mm 0 W/m2
02:07 8.3 °C 7.4 °C 1019.9 hPa Calm   4.8 km/h 94 % 0 mm 0 W/m2
02:12 8.3 °C 7.4 °C 1019.9 hPa Calm   1.6 km/h 94 % 0 mm 0 W/m2
02:17 8.3 °C 7.2 °C 1019.9 hPa Calm   1.6 km/h 93 % 0 mm 0 W/m2
02:23 8.2 °C 7.1 °C 1019.9 hPa NW 1.6 km/h 4.8 km/h 93 % 0 mm 0 W/m2
02:28 8.1 °C 7.1 °C 1019.9 hPa NW 1.6 km/h 4.8 km/h 93 % 0 mm 0 W/m2
02:33 8.1 °C 7.1 °C 1019.9 hPa Calm   3.2 km/h 93 % 0 mm 0 W/m2
02:38 8.1 °C 7.2 °C 1019.9 hPa NW 1.6 km/h 3.2 km/h 94 % 0 mm 0 W/m2
02:43 8.1 °C 7.2 °C 1019.9 hPa NW 1.6 km/h 3.2 km/h 94 % 0 mm 0 W/m2
02:48 8 °C 7.1 °C 1019.9 hPa Calm   3.2 km/h 94 % 0 mm 0 W/m2
02:53 8.1 °C 7.2 °C 1019.9 hPa Calm   3.2 km/h 94 % 0 mm 0 W/m2
02:58 8.1 °C 7.2 °C 1019.9 hPa Calm   3.2 km/h 94 % 0 mm 0 W/m2
03:03 8 °C 7.1 °C 1019.9 hPa Calm     94 % 0 mm 0 W/m2
03:04 8 °C 7.1 °C 1019.9 hPa Calm     94 % 0 mm 0 W/m2
03:08 8 °C 7.1 °C 1019.9 hPa Calm     94 % 0 mm 0 W/m2
03:13 7.9 °C 7 °C 1019.9 hPa Calm     94 % 0 mm 0 W/m2
03:18 7.9 °C 7 °C 1019.9 hPa Calm   3.2 km/h 94 % 0 mm 0 W/m2
03:23 7.8 °C 6.9 °C 1020.2 hPa Calm   3.2 km/h 94 % 0 mm 0 W/m2
03:28 7.8 °C 6.9 °C 1020.2 hPa Calm   3.2 km/h 94 % 0 mm 0 W/m2
03:33 7.7 °C 6.8 °C 1020.2 hPa Calm     94 % 0 mm 0 W/m2
03:38 7.7 °C 6.8 °C 1019.9 hPa Calm     94 % 0 mm 0 W/m2
03:43 7.7 °C 6.8 °C 1020.2 hPa Calm     94 % 0 mm 0 W/m2
03:48 7.6 °C 6.7 °C 1020.2 hPa Calm   1.6 km/h 94 % 0 mm 0 W/m2
03:53 7.6 °C 6.7 °C 1020.2 hPa NW 1.6 km/h 3.2 km/h 94 % 0 mm 0 W/m2
03:58 7.6 °C 6.7 °C 1020.2 hPa NW 1.6 km/h 3.2 km/h 94 % 0 mm 0 W/m2
04:03 7.5 °C 6.6 °C 1020.2 hPa Calm   1.6 km/h 94 % 0 mm 0 W/m2
04:08 7.5 °C 6.6 °C 1020.2 hPa Calm   4.8 km/h 94 % 0 mm 0 W/m2
04:09 7.5 °C 6.6 °C 1020.2 hPa Calm   8 km/h 94 % 0 mm 0 W/m2
04:15 7.4 °C 6.5 °C 1020.2 hPa NW 1.6 km/h 8 km/h 94 % 0 mm 0 W/m2
04:20 7.4 °C 6.5 °C 1020.2 hPa NW 1.6 km/h 6.4 km/h 94 % 0 mm 0 W/m2
04:24 7.3 °C 6.4 °C 1020.2 hPa Calm     94 % 0 mm 0 W/m2
04:25 7.3 °C 6.4 °C 1020.2 hPa Calm     94 % 0 mm 0 W/m2
04:27 7.3 °C 6.4 °C 1020.2 hPa Calm     94 % 0 mm 0 W/m2
04:28 7.3 °C 6.4 °C 1020.2 hPa Calm   1.6 km/h 94 % 0 mm 0 W/m2
04:33 7.2 °C 6.3 °C 1020.2 hPa Calm   1.6 km/h 94 % 0 mm 0 W/m2
04:38 7.2 °C 6.3 °C 1020.2 hPa Calm   1.6 km/h 94 % 0 mm 0 W/m2
04:43 7.1 °C 6.2 °C 1020.2 hPa Calm   1.6 km/h 94 % 0 mm 0 W/m2
04:48 7 °C 6.1 °C 1020.5 hPa Calm     94 % 0 mm 0 W/m2
04:53 6.9 °C 6 °C 1020.5 hPa Calm     94 % 0 mm 0 W/m2
04:58 6.9 °C 6 °C 1020.5 hPa Calm   1.6 km/h 94 % 0 mm 0 W/m2
05:03 6.8 °C 5.9 °C 1020.5 hPa Calm   1.6 km/h 94 % 0 mm 0 W/m2
05:08 6.8 °C 6.1 °C 1020.5 hPa Calm     95 % 0 mm 0 W/m2
05:13 6.8 °C 6.1 °C 1020.5 hPa Calm     95 % 0 mm 0 W/m2
05:18 6.8 °C 6.1 °C 1020.5 hPa Calm     95 % 0 mm 0 W/m2
05:23 6.7 °C 5.9 °C 1020.5 hPa Calm     95 % 0 mm 0 W/m2
05:28 6.7 °C 5.9 °C 1020.5 hPa Calm     95 % 0 mm 0 W/m2
05:33 6.7 °C 5.9 °C 1020.9 hPa Calm     95 % 0 mm 0 W/m2
05:38 6.7 °C 5.9 °C 1020.9 hPa Calm     95 % 0 mm 0 W/m2
05:43 6.8 °C 6.1 °C 1020.9 hPa Calm     95 % 0 mm 0 W/m2
05:48 6.8 °C 6.1 °C 1020.9 hPa Calm     95 % 0 mm 0 W/m2
05:53 6.7 °C 5.9 °C 1020.9 hPa Calm     95 % 0 mm 0 W/m2
05:58 6.7 °C 5.9 °C 1020.9 hPa Calm   1.6 km/h 95 % 0 mm 0 W/m2
06:03 6.7 °C 5.9 °C 1020.9 hPa Calm   1.6 km/h 95 % 0 mm 0 W/m2
06:09 6.7 °C 5.9 °C 1020.9 hPa Calm     95 % 0 mm 0 W/m2
06:14 6.7 °C 5.9 °C 1020.9 hPa Calm     95 % 0 mm 0 W/m2
06:19 6.7 °C 5.9 °C 1020.9 hPa Calm     95 % 0 mm 5 W/m2
06:24 6.6 °C 5.8 °C 1020.9 hPa Calm     95 % 0 mm 7 W/m2
06:29 6.5 °C 5.8 °C 1020.9 hPa Calm     95 % 0 mm 11 W/m2
06:34 6.4 °C 5.7 °C 1020.9 hPa Calm   1.6 km/h 95 % 0 mm 12 W/m2
06:39 6.6 °C 6 °C 1020.9 hPa Calm   3.2 km/h 96 % 0 mm 14 W/m2
06:44 6.7 °C 6.1 °C 1020.9 hPa Calm   3.2 km/h 96 % 0 mm 16 W/m2
06:49 6.8 °C 6.2 °C 1020.9 hPa Calm   1.6 km/h 96 % 0 mm 18 W/m2
06:55 6.9 °C 6.3 °C 1020.9 hPa Calm   3.2 km/h 96 % 0 mm 19 W/m2
07:00 7 °C 6.4 °C 1021.2 hPa Calm   3.2 km/h 96 % 0 mm 39 W/m2
07:05 7.1 °C 6.5 °C 1021.2 hPa Calm     96 % 0 mm 33 W/m2
07:10 7.1 °C 6.5 °C 1021.2 hPa Calm     96 % 0 mm 37 W/m2
07:15 7.3 °C 6.7 °C 1021.2 hPa Calm     96 % 0 mm 69 W/m2
07:20 7.4 °C 6.8 °C 1021.2 hPa Calm     96 % 0 mm 118 W/m2
07:25 7.7 °C 7.1 °C 1021.2 hPa Calm     96 % 0 mm 127 W/m2
07:30 8.1 °C 7.7 °C 1021.6 hPa Calm     97 % 0 mm 139 W/m2
07:35 8.3 °C 7.8 °C 1021.6 hPa Calm     97 % 0 mm 149 W/m2
07:40 8.7 °C 8.3 °C 1021.6 hPa Calm     97 % 0 mm 162 W/m2
07:45 9.3 °C 8.8 °C 1021.6 hPa Calm     97 % 0 mm 172 W/m2
07:50 9.4 °C 8.8 °C 1021.6 hPa Calm     96 % 0 mm 56 W/m2
07:55 9.5 °C 8.7 °C 1021.6 hPa Calm     95 % 0 mm 162 W/m2
08:00 9.6 °C 8.8 °C 1021.6 hPa Calm     95 % 0 mm 211 W/m2
08:05 9.8 °C 9.1 °C 1021.6 hPa Calm     95 % 0 mm 225 W/m2
08:10 10.4 °C 9.8 °C 1021.6 hPa Calm     96 % 0 mm 237 W/m2
08:15 11.1 °C 10.5 °C 1021.6 hPa Calm     96 % 0 mm 246 W/m2
08:20 11.6 °C 10.8 °C 1021.6 hPa Calm     95 % 0 mm 262 W/m2
08:25 11.9 °C 10.9 °C 1021.6 hPa Calm     94 % 0 mm 272 W/m2
08:30 12.3 °C 11.2 °C 1021.9 hPa Calm   1.6 km/h 93 % 0 mm 283 W/m2
08:35 12.8 °C 11.6 °C 1021.9 hPa Calm   8 km/h 92 % 0 mm 297 W/m2
08:40 13.3 °C 11.5 °C 1021.9 hPa NW 3.2 km/h 14.5 km/h 89 % 0 mm 313 W/m2
08:45 13.8 °C 11.3 °C 1021.9 hPa NW 6.4 km/h 14.5 km/h 85 % 0 mm 327 W/m2
08:50 14.3 °C 11.1 °C 1021.9 hPa NW 8 km/h 16.1 km/h 81 % 0 mm 339 W/m2
08:55 14.8 °C 11.2 °C 1021.9 hPa NW 9.7 km/h 16.1 km/h 79 % 0 mm 355 W/m2
09:00 15.1 °C 11.3 °C 1021.9 hPa NW 8 km/h 14.5 km/h 78 % 0 mm 369 W/m2
09:05 15.5 °C 11.3 °C 1022.2 hPa NW 6.4 km/h 14.5 km/h 76 % 0 mm 381 W/m2
09:10 15.8 °C 11.4 °C 1022.2 hPa NNW 6.4 km/h 14.5 km/h 75 % 0 mm 396 W/m2
09:15 16.1 °C 11.4 °C 1022.2 hPa NNW 6.4 km/h 14.5 km/h 74 % 0 mm 415 W/m2
09:20 16.4 °C 11.6 °C 1022.2 hPa NNW 6.4 km/h 14.5 km/h 73 % 0 mm 431 W/m2
09:25 16.6 °C 11.3 °C 1022.2 hPa NNW 8 km/h 14.5 km/h 71 % 0 mm 452 W/m2
09:30 16.8 °C 11.5 °C 1022.2 hPa NNW 8 km/h 14.5 km/h 71 % 0 mm 469 W/m2
09:35 17.1 °C 11.6 °C 1022.2 hPa NW 6.4 km/h 14.5 km/h 70 % 0 mm 485 W/m2
09:40 17.4 °C 11.7 °C 1021.9 hPa NW 4.8 km/h 14.5 km/h 69 % 0 mm 508 W/m2
09:45 17.7 °C 11.5 °C 1021.9 hPa NW 6.4 km/h 14.5 km/h 67 % 0 mm 526 W/m2
09:50 17.7 °C 11.3 °C 1021.9 hPa NW 9.7 km/h 19.3 km/h 66 % 0 mm 540 W/m2
09:55 17.8 °C 11.3 °C 1021.9 hPa NW 8 km/h 19.3 km/h 66 % 0 mm 573 W/m2
10:00 18 °C 11.3 °C 1021.9 hPa NNW 6.4 km/h 16.1 km/h 65 % 0 mm 598 W/m2
10:05 18.2 °C 11.3 °C 1021.9 hPa NW 6.4 km/h 14.5 km/h 64 % 0 mm 617 W/m2
10:11 18.3 °C 11.4 °C 1021.9 hPa NW 8 km/h 16.1 km/h 64 % 0 mm 487 W/m2
10:16 18.2 °C 11.1 °C 1021.9 hPa NW 8 km/h 16.1 km/h 63 % 0 mm 320 W/m2
10:21 18.1 °C 10.9 °C 1021.9 hPa NW 6.4 km/h 16.1 km/h 63 % 0 mm 432 W/m2
10:26 18.1 °C 11.2 °C 1021.9 hPa NW 8 km/h 16.1 km/h 64 % 0 mm 501 W/m2
10:31 18 °C 11.3 °C 1021.9 hPa WNW 9.7 km/h 19.3 km/h 65 % 0 mm 325 W/m2
10:36 17.9 °C 11.4 °C 1021.9 hPa NW 8 km/h 19.3 km/h 66 % 0 mm 580 W/m2
10:41 17.9 °C 11.2 °C 1021.9 hPa NW 9.7 km/h 17.7 km/h 65 % 0 mm 656 W/m2
10:46 17.9 °C 11.2 °C 1021.9 hPa NW 9.7 km/h 17.7 km/h 65 % 0 mm 589 W/m2
10:51 18 °C 11.6 °C 1021.9 hPa NW 6.4 km/h 14.5 km/h 66 % 0 mm 761 W/m2
10:56 18.4 °C 11.7 °C 1021.9 hPa NW 8 km/h 16.1 km/h 65 % 0 mm 840 W/m2
11:01 18.5 °C 11.3 °C 1021.9 hPa WNW 8 km/h 16.1 km/h 63 % 0 mm 615 W/m2
11:06 18.4 °C 11.2 °C 1021.9 hPa WNW 6.4 km/h 14.5 km/h 63 % 0 mm 244 W/m2
11:11 18.2 °C 11.1 °C 1021.9 hPa WNW 8 km/h 17.7 km/h 63 % 0 mm 185 W/m2
11:16 18 °C 11.1 °C 1021.9 hPa NW 9.7 km/h 17.7 km/h 64 % 0 mm 283 W/m2
11:21 17.9 °C 11.2 °C 1021.9 hPa NW 8 km/h 14.5 km/h 65 % 0 mm 227 W/m2
11:26 17.9 °C 11.2 °C 1021.9 hPa NW 6.4 km/h 14.5 km/h 65 % 0 mm 285 W/m2
11:31 17.8 °C 11.1 °C 1021.9 hPa NW 6.4 km/h 12.9 km/h 65 % 0 mm 756 W/m2
11:36 18.1 °C 11.7 °C 1021.9 hPa NW 8 km/h 17.7 km/h 66 % 0 mm 427 W/m2
11:41 18.3 °C 11.6 °C 1021.9 hPa NW 8 km/h 17.7 km/h 65 % 0 mm 352 W/m2
11:46 18.4 °C 11.7 °C 1021.9 hPa NW 6.4 km/h 14.5 km/h 65 % 0 mm 269 W/m2
11:51 18.4 °C 11.2 °C 1021.9 hPa NW 6.4 km/h 16.1 km/h 63 % 0 mm 197 W/m2
11:56 18.3 °C 11.4 °C 1021.9 hPa NW 4.8 km/h 16.1 km/h 64 % 0 mm 250 W/m2
12:01 18.3 °C 11.4 °C 1021.9 hPa NNW 1.6 km/h 8 km/h 64 % 0 mm 360 W/m2
12:06 18.3 °C 11.1 °C 1021.9 hPa NW 3.2 km/h 11.3 km/h 63 % 0 mm 364 W/m2
12:11 18.3 °C 11.1 °C 1021.9 hPa NW 4.8 km/h 12.9 km/h 63 % 0 mm 445 W/m2
12:16 18.4 °C 11.2 °C 1021.9 hPa NNW 4.8 km/h 12.9 km/h 63 % 0 mm 262 W/m2
12:21 18.4 °C 11.2 °C 1021.9 hPa NW 6.4 km/h 16.1 km/h 63 % 0 mm 257 W/m2
12:26 18.4 °C 11.2 °C 1021.9 hPa NW 9.7 km/h 16.1 km/h 63 % 0 mm 457 W/m2
12:31 18.4 °C 11 °C 1021.6 hPa NW 8 km/h 14.5 km/h 62 % 0 mm 325 W/m2
12:36 18.6 °C 10.4 °C 1021.6 hPa NW 6.4 km/h 12.9 km/h 59 % 0 mm 930 W/m2
12:41 18.8 °C 10.6 °C 1021.6 hPa NNW 4.8 km/h 12.9 km/h 59 % 0 mm 624 W/m2
12:46 19 °C 10.8 °C 1021.6 hPa NNW 1.6 km/h 8 km/h 59 % 0 mm 849 W/m2
12:51 19.3 °C 11.1 °C 1021.6 hPa North 3.2 km/h 12.9 km/h 59 % 0 mm 1021 W/m2
12:56 19.5 °C 10.5 °C 1021.6 hPa NNW 4.8 km/h 12.9 km/h 56 % 0 mm 965 W/m2
13:01 19.7 °C 10.9 °C 1021.6 hPa WNW 8 km/h 22.5 km/h 57 % 0 mm 141 W/m2
13:06 19.6 °C 11.1 °C 1021.6 hPa WNW 11.3 km/h 22.5 km/h 58 % 0 mm 134 W/m2
13:11 19.3 °C 10.8 °C 1021.6 hPa WNW 11.3 km/h 19.3 km/h 58 % 0 mm 178 W/m2
13:16 19.1 °C 10.7 °C 1021.6 hPa West 8 km/h 14.5 km/h 58 % 0 mm 223 W/m2
13:21 18.9 °C 10.4 °C 1021.6 hPa WNW 6.4 km/h 14.5 km/h 58 % 0 mm 234 W/m2
13:26 18.8 °C 10.6 °C 1021.6 hPa WNW 4.8 km/h 11.3 km/h 59 % 0 mm 218 W/m2
13:31 18.7 °C 10.3 °C 1021.6 hPa NW 8 km/h 16.1 km/h 58 % 0 mm 265 W/m2
13:36 18.7 °C 10.3 °C 1021.6 hPa NW 9.7 km/h 17.7 km/h 58 % 0 mm 559 W/m2
13:42 18.8 °C 10.3 °C 1021.6 hPa NW 9.7 km/h 17.7 km/h 58 % 0 mm 471 W/m2
13:47 19.1 °C 10.4 °C 1021.6 hPa NW 8 km/h 16.1 km/h 57 % 0 mm 394 W/m2
13:52 19.2 °C 10.2 °C 1021.6 hPa NW 8 km/h 17.7 km/h 56 % 0 mm 501 W/m2
13:57 19.4 °C 9.8 °C 1021.6 hPa NW 8 km/h 19.3 km/h 54 % 0 mm 592 W/m2
14:02 19.6 °C 10.1 °C 1021.6 hPa NW 8 km/h 19.3 km/h 54 % 0 mm 480 W/m2
14:07 19.7 °C 10.1 °C 1021.6 hPa NNW 4.8 km/h 16.1 km/h 54 % 0 mm 584 W/m2
14:12 19.9 °C 10.3 °C 1021.6 hPa NNW 4.8 km/h 11.3 km/h 54 % 0 mm 473 W/m2
14:17 20 °C 10.1 °C 1021.6 hPa NW 6.4 km/h 14.5 km/h 53 % 0 mm 918 W/m2
14:22 20.2 °C 10 °C 1021.6 hPa NW 8 km/h 17.7 km/h 52 % 0 mm 508 W/m2
14:27 20.3 °C 9.6 °C 1021.6 hPa WNW 9.7 km/h 17.7 km/h 50 % 0 mm 281 W/m2
14:32 20.3 °C 9.8 °C 1021.6 hPa WNW 9.7 km/h 17.7 km/h 51 % 0 mm 469 W/m2
14:37 20.2 °C 9.4 °C 1021.2 hPa WNW 8 km/h 14.5 km/h 50 % 0 mm 555 W/m2
14:42 20.4 °C 9.6 °C 1021.2 hPa WNW 8 km/h 14.5 km/h 50 % 0 mm 758 W/m2
14:47 20.4 °C 9.9 °C 1021.2 hPa WNW 9.7 km/h 25.7 km/h 51 % 0 mm 526 W/m2
14:52 20.4 °C 10.8 °C 1021.6 hPa WNW 11.3 km/h 25.7 km/h 54 % 0 mm 373 W/m2
14:57 20.1 °C 11.1 °C 1021.2 hPa West 12.9 km/h 24.1 km/h 56 % 0 mm 301 W/m2
15:02 19.6 °C 10.6 °C 1021.6 hPa West 14.5 km/h 25.7 km/h 56 % 0 mm 274 W/m2
15:07 19.3 °C 10.6 °C 1021.6 hPa West 16.1 km/h 25.7 km/h 57 % 0 mm 269 W/m2
15:12 19.1 °C 10.7 °C 1021.6 hPa West 16.1 km/h 24.1 km/h 58 % 0 mm 313 W/m2
15:17 19.1 °C 10.7 °C 1021.6 hPa West 14.5 km/h 22.5 km/h 58 % 0 mm 283 W/m2
15:22 19.1 °C 10.7 °C 1021.6 hPa WNW 12.9 km/h 24.1 km/h 58 % 0 mm 285 W/m2
15:27 19.1 °C 10.4 °C 1021.6 hPa WNW 12.9 km/h 24.1 km/h 57 % 0 mm 294 W/m2
15:32 19.1 °C 10.9 °C 1021.6 hPa WNW 11.3 km/h 20.9 km/h 59 % 0 mm 330 W/m2
15:37 19.1 °C 10.7 °C 1021.6 hPa NW 9.7 km/h 19.3 km/h 58 % 0 mm 260 W/m2
15:42 19.2 °C 10.4 °C 1021.6 hPa WNW 9.7 km/h 17.7 km/h 57 % 0 mm 243 W/m2
15:47 19.2 °C 10.4 °C 1021.6 hPa WNW 9.7 km/h 16.1 km/h 57 % 0 mm 213 W/m2
15:52 19.2 °C 10.4 °C 1021.2 hPa WNW 8 km/h 16.1 km/h 57 % 0 mm 360 W/m2
15:57 19.3 °C 11.1 °C 1021.6 hPa WNW 8 km/h 14.5 km/h 59 % 0 mm 594 W/m2
16:02 19.5 °C 10.8 °C 1021.6 hPa WNW 9.7 km/h 17.7 km/h 57 % 0 mm 378 W/m2
16:07 19.6 °C 10.8 °C 1021.6 hPa WNW 9.7 km/h 17.7 km/h 57 % 0 mm 473 W/m2
16:12 19.7 °C 10.9 °C 1021.6 hPa WNW 11.3 km/h 17.7 km/h 57 % 0 mm 276 W/m2
16:18 19.7 °C 10.4 °C 1021.6 hPa NW 11.3 km/h 19.3 km/h 55 % 0 mm 239 W/m2
16:22 19.7 °C 10.9 °C 1021.2 hPa NNW 11.3 km/h 19.3 km/h 57 % 0 mm 294 W/m2
16:27 19.6 °C 10.8 °C 1021.6 hPa NW 11.3 km/h 29 km/h 57 % 0 mm 236 W/m2
16:32 19.4 °C 10.9 °C 1021.6 hPa NW 14.5 km/h 29 km/h 58 % 0 mm 214 W/m2
16:38 19.2 °C 11 °C 1021.6 hPa NW 12.9 km/h 22.5 km/h 59 % 0 mm 264 W/m2
16:43 19.2 °C 10.7 °C 1021.6 hPa NW 12.9 km/h 22.5 km/h 58 % 0 mm 561 W/m2
16:48 19.2 °C 11 °C 1021.6 hPa WNW 14.5 km/h 22.5 km/h 59 % 0 mm 225 W/m2
16:53 19.1 °C 10.7 °C 1021.6 hPa WNW 14.5 km/h 20.9 km/h 58 % 0 mm 213 W/m2
16:58 18.9 °C 10.2 °C 1021.6 hPa NW 12.9 km/h 20.9 km/h 57 % 0 mm 232 W/m2
17:03 18.8 °C 10.1 °C 1021.6 hPa NW 11.3 km/h 17.7 km/h 57 % 0 mm 276 W/m2
17:08 18.9 °C 9.9 °C 1021.6 hPa WNW 11.3 km/h 17.7 km/h 56 % 0 mm 264 W/m2
17:13 19.3 °C 10.6 °C 1021.6 hPa WNW 9.7 km/h 17.7 km/h 57 % 0 mm 485 W/m2
17:18 19.6 °C 11.6 °C 1021.6 hPa WNW 11.3 km/h 17.7 km/h 60 % 0 mm 353 W/m2
17:23 19.3 °C 12.1 °C 1021.6 hPa NNW 12.9 km/h 33.8 km/h 63 % 0 mm 100 W/m2
17:28 18 °C 12.7 °C 1021.6 hPa North 12.9 km/h 33.8 km/h 71 % 0.25 mm 65 W/m2
17:33 17.2 °C 12.7 °C 1021.6 hPa North 9.7 km/h 24.1 km/h 75 % 0.25 mm 56 W/m2
17:38 16.6 °C 12.9 °C 1021.9 hPa NNE 6.4 km/h 14.5 km/h 79 % 0.25 mm 44 W/m2
17:43 16.2 °C 12.7 °C 1021.9 hPa NNE 4.8 km/h 11.3 km/h 80 % 0.25 mm 40 W/m2
17:48 15.9 °C 12.7 °C 1021.6 hPa NE 3.2 km/h 9.7 km/h 81 % 0.25 mm 40 W/m2
17:53 15.8 °C 12.7 °C 1021.9 hPa NE 1.6 km/h 9.7 km/h 82 % 0.25 mm 49 W/m2
17:58 15.7 °C 12.6 °C 1021.6 hPa Calm   6.4 km/h 82 % 0.25 mm 65 W/m2
18:03 15.6 °C 12.6 °C 1021.9 hPa NE 1.6 km/h 6.4 km/h 82 % 0.25 mm 79 W/m2
18:08 15.6 °C 12.7 °C 1021.9 hPa NE 1.6 km/h 8 km/h 83 % 0.25 mm 77 W/m2
18:13 15.6 °C 12.3 °C 1021.9 hPa NNE 3.2 km/h 11.3 km/h 81 % 0.25 mm 63 W/m2
18:18 15.6 °C 12.6 °C 1021.9 hPa North 4.8 km/h 11.3 km/h 82 % 0.25 mm 58 W/m2
18:23 15.6 °C 12.6 °C 1021.9 hPa NNW 3.2 km/h 11.3 km/h 82 % 0.25 mm 51 W/m2
18:28 15.7 °C 12.6 °C 1021.9 hPa NNW 3.2 km/h 9.7 km/h 82 % 0 mm 46 W/m2
18:33 15.7 °C 12.8 °C 1021.9 hPa NNW 1.6 km/h 3.2 km/h 83 % 0 mm 42 W/m2
18:38 15.7 °C 12.6 °C 1021.9 hPa Calm   3.2 km/h 82 % 0 mm 44 W/m2
18:43 15.7 °C 12.6 °C 1021.9 hPa Calm     82 % 0 mm 54 W/m2
18:48 15.7 °C 12.8 °C 1021.9 hPa Calm   3.2 km/h 83 % 0 mm 47 W/m2
18:52 15.8 °C 13.1 °C 1021.9 hPa NNW 1.6 km/h 6.4 km/h 84 % 0 mm 42 W/m2
18:57 15.7 °C 13.2 °C 1021.9 hPa NNW 1.6 km/h 6.4 km/h 85 % 0 mm 33 W/m2
19:02 15.7 °C 13.4 °C 1021.9 hPa Calm   3.2 km/h 86 % 0 mm 26 W/m2
19:07 15.6 °C 13.3 °C 1021.9 hPa Calm   8 km/h 86 % 0 mm 26 W/m2
19:12 15.5 °C 13.3 °C 1021.9 hPa NNW 1.6 km/h 8 km/h 87 % 0 mm 30 W/m2
19:17 15.4 °C 13.2 °C 1022.2 hPa NNW 1.6 km/h 8 km/h 87 % 0 mm 25 W/m2
19:22 15.3 °C 13.2 °C 1022.2 hPa Calm   3.2 km/h 87 % 0 mm 18 W/m2
19:27 15.2 °C 12.7 °C 1022.2 hPa NNW 1.6 km/h 9.7 km/h 85 % 0 mm 16 W/m2
19:32 15.1 °C 12.4 °C 1021.9 hPa NNW 1.6 km/h 9.7 km/h 84 % 0 mm 12 W/m2
19:37 15.1 °C 12.2 °C 1022.2 hPa NNW 3.2 km/h 8 km/h 83 % 0 mm 9 W/m2
19:42 15.1 °C 12.2 °C 1022.2 hPa NNW 3.2 km/h 9.7 km/h 83 % 0 mm 7 W/m2
19:47 15 °C 11.9 °C 1022.2 hPa NNW 3.2 km/h 9.7 km/h 82 % 0 mm 5 W/m2
19:52 15 °C 11.8 °C 1022.2 hPa NNW 3.2 km/h 8 km/h 81 % 0 mm 0 W/m2
19:57 15 °C 11.8 °C 1022.2 hPa NNW 3.2 km/h 8 km/h 81 % 0 mm 0 W/m2
20:02 15 °C 11.8 °C 1022.2 hPa NNW 1.6 km/h 8 km/h 81 % 0 mm 0 W/m2
20:07 15.1 °C 11.9 °C 1022.2 hPa Calm   8 km/h 81 % 0 mm 0 W/m2
20:12 15 °C 11.8 °C 1022.2 hPa Calm   3.2 km/h 81 % 0 mm 0 W/m2
20:17 15 °C 11.8 °C 1022.2 hPa Calm   3.2 km/h 81 % 0 mm 0 W/m2
20:22 15 °C 11.6 °C 1022.6 hPa NNW 1.6 km/h 9.7 km/h 80 % 0 mm 0 W/m2
20:27 15 °C 11.9 °C 1022.6 hPa NNW 1.6 km/h 9.7 km/h 82 % 0 mm 0 W/m2
20:32 15 °C 11.9 °C 1022.6 hPa NNW 1.6 km/h 8 km/h 82 % 0 mm 0 W/m2
20:37 14.9 °C 11.7 °C 1022.6 hPa NW 3.2 km/h 12.9 km/h 81 % 0 mm 0 W/m2
20:42 14.9 °C 11.7 °C 1022.6 hPa NW 3.2 km/h 12.9 km/h 81 % 0 mm 0 W/m2
20:47 14.8 °C 11.6 °C 1022.6 hPa NW 3.2 km/h 9.7 km/h 81 % 0 mm 0 W/m2
20:52 14.8 °C 11.6 °C 1022.6 hPa NW 4.8 km/h 9.7 km/h 81 % 0 mm 0 W/m2
20:57 14.7 °C 11.4 °C 1022.9 hPa NW 4.8 km/h 9.7 km/h 81 % 0 mm 0 W/m2
21:03 14.6 °C 11.4 °C 1022.9 hPa NW 3.2 km/h 9.7 km/h 81 % 0 mm 0 W/m2
21:08 14.6 °C 11.4 °C 1022.9 hPa NW 3.2 km/h 8 km/h 81 % 0 mm 0 W/m2
21:13 14.6 °C 11.6 °C 1023.2 hPa NNW 4.8 km/h 17.7 km/h 82 % 0.25 mm 0 W/m2
21:18 14.4 °C 11.7 °C 1023.2 hPa NNW 8 km/h 17.7 km/h 84 % 0.51 mm 0 W/m2
21:23 14.3 °C 11.8 °C 1022.9 hPa NNW 8 km/h 14.5 km/h 85 % 0.76 mm 0 W/m2
21:28 14.1 °C 11.8 °C 1022.9 hPa NW 6.4 km/h 14.5 km/h 86 % 0.76 mm 0 W/m2
21:33 13.9 °C 11.8 °C 1022.9 hPa NW 6.4 km/h 14.5 km/h 87 % 0.76 mm 0 W/m2
21:38 13.8 °C 11.8 °C 1023.2 hPa NW 6.4 km/h 11.3 km/h 88 % 0.76 mm 0 W/m2
21:43 13.8 °C 11.8 °C 1023.2 hPa NNW 4.8 km/h 9.7 km/h 88 % 0.76 mm 0 W/m2
21:48 13.7 °C 11.9 °C 1023.2 hPa NW 6.4 km/h 11.3 km/h 89 % 0.76 mm 0 W/m2
21:53 13.6 °C 11.8 °C 1023.2 hPa NW 6.4 km/h 11.3 km/h 89 % 0.76 mm 0 W/m2
21:58 13.5 °C 11.9 °C 1023.2 hPa NNW 3.2 km/h 8 km/h 90 % 0.76 mm 0 W/m2
22:03 13.4 °C 11.8 °C 1023.2 hPa NNW 1.6 km/h 8 km/h 90 % 0.76 mm 0 W/m2
22:08 13.4 °C 11.9 °C 1023.2 hPa NNW 1.6 km/h 8 km/h 91 % 0.76 mm 0 W/m2
22:13 13.4 °C 11.9 °C 1023.2 hPa NNW 1.6 km/h 8 km/h 91 % 0.51 mm 0 W/m2
22:18 13.4 °C 11.9 °C 1023.2 hPa Calm   1.6 km/h 91 % 0.25 mm 0 W/m2
22:23 13.4 °C 11.9 °C 1023.2 hPa Calm     91 % 0 mm 0 W/m2
22:28 13.4 °C 12.1 °C 1023.2 hPa Calm     92 % 0 mm 0 W/m2
22:33 13.5 °C 12.2 °C 1023.2 hPa Calm     92 % 0 mm 0 W/m2
22:38 13.4 °C 12.1 °C 1023.2 hPa Calm     92 % 0 mm 0 W/m2
22:43 13.4 °C 12.1 °C 1023.2 hPa Calm     92 % 0 mm 0 W/m2
22:48 13.3 °C 12 °C 1023.2 hPa Calm     92 % 0 mm 0 W/m2
22:53 13.4 °C 12.3 °C 1023.2 hPa Calm     93 % 0 mm 0 W/m2
22:58 13.3 °C 12.2 °C 1023.2 hPa Calm     93 % 0 mm 0 W/m2
23:03 13.3 °C 12 °C 1023.2 hPa Calm   1.6 km/h 92 % 0 mm 0 W/m2
23:08 13.3 °C 12.2 °C 1023.2 hPa Calm   3.2 km/h 93 % 0 mm 0 W/m2
23:13 13.2 °C 12.1 °C 1023.2 hPa Calm   3.2 km/h 93 % 0 mm 0 W/m2
23:18 13.2 °C 12.1 °C 1023.2 hPa Calm     93 % 0 mm 0 W/m2
23:23 13.1 °C 12 °C 1023.6 hPa Calm     93 % 0 mm 0 W/m2
23:28 13.1 °C 12 °C 1023.2 hPa Calm   1.6 km/h 93 % 0 mm 0 W/m2
23:34 13.1 °C 12 °C 1023.2 hPa Calm   3.2 km/h 93 % 0 mm 0 W/m2
23:39 13 °C 11.9 °C 1023.2 hPa Calm   3.2 km/h 93 % 0 mm 0 W/m2
23:44 12.9 °C 11.8 °C 1023.2 hPa Calm   1.6 km/h 93 % 0 mm 0 W/m2
23:49 12.9 °C 11.8 °C 1023.2 hPa Calm     93 % 0 mm 0 W/m2
23:54 12.8 °C 11.7 °C 1023.2 hPa Calm     93 % 0 mm 0 W/m2
23:59 12.8 °C 11.7 °C 1023.2 hPa Calm     93 % 0 mm 0 W/m2
Delerius-Weather
Compliments of Weather Underground - 2.25 mb

Data updates at regular intervals.